WetterOnline ( https://www.wetteronline.de )

Wetter aktuell Münster

Aktuelles Wetter: Münster/Osnabrück Flugh. (53m)

6-stündlich | Neueste Meldungen
Ortszeit Temperatur Wetter
Fr, 19.08. 14:00 26.9° C wolkig
Fr, 19.08. 8:00 15.9° C leicht bewölkt
Fr, 19.08. 2:00 15.8° C fast wolkenlos
Do, 18.08. 20:00 23.5° C leicht bewölkt
Do, 18.08. 14:00 22.4° C bewölkt
Do, 18.08. 8:00 18.3° C bedeckt
Do, 18.08. 2:00 16.6° C Nebelschwaden
Mi, 17.08. 20:00 24.3° C wolkig
Ortszeit Temperatur Wetter
Fr, 19.08. 18:30 25.6° C bedeckt
Fr, 19.08. 18:20 25.6° C bedeckt
Fr, 19.08. 18:10 26.0° C bedeckt
Fr, 19.08. 18:00 26.3° C bewölkt
Fr, 19.08. 17:50 26.3° C bedeckt
Fr, 19.08. 17:40 26.3° C bedeckt
Fr, 19.08. 17:30 26.2° C bedeckt
Fr, 19.08. 17:00 26.2° C bewölkt
Fr, 19.08. 16:30 26.6° C bewölkt
Fr, 19.08. 16:00 27.7° C leicht bewölkt
Fr, 19.08. 15:30 27.0° C wolkig
Fr, 19.08. 15:00 27.0° C wolkig
Ortszeit Relative Feuchte Sichtweite
Fr, 19.08. 14:00 44% 40 km
Fr, 19.08. 8:00 90% 8 km
Fr, 19.08. 2:00 95% 30 km
Do, 18.08. 20:00 60% 45 km
Do, 18.08. 14:00 66% 25 km
Do, 18.08. 8:00 92% 2.5 km
Do, 18.08. 2:00 96% 0.6 km
Mi, 17.08. 20:00 70% 15 km
Ortszeit Relative Feuchte Sichtweite
Fr, 19.08. 18:30 48% 40 km
Fr, 19.08. 18:20 48% -
Fr, 19.08. 18:10 45% -
Fr, 19.08. 18:00 45% 40 km
Fr, 19.08. 17:50 45% -
Fr, 19.08. 17:40 45% -
Fr, 19.08. 17:30 45% 35 km
Fr, 19.08. 17:00 46% 40 km
Fr, 19.08. 16:30 44% 45 km
Fr, 19.08. 16:00 40% 45 km
Fr, 19.08. 15:30 42% >70 km
Fr, 19.08. 15:00 45% 45 km
Ortszeit Niederschlagsmenge Niederschlagsart
Fr, 19.08. 14:00 0.0 l/m2 in 6 Std. -
Fr, 19.08. 8:00 0.0 l/m2 in 12 Std. -
Fr, 19.08. 2:00 0.0 l/m2 in 6 Std. -
Do, 18.08. 20:00 0.0 l/m2 in 12 Std. -
Do, 18.08. 14:00 0.0 l/m2 in 6 Std. -
Do, 18.08. 8:00 0.1 l/m2 in 12 Std. Nebel
Do, 18.08. 2:00 0.0 l/m2 in 6 Std. -
Mi, 17.08. 20:00 0.9 l/m2 in 12 Std. Schauer
Ortszeit Niederschlagsmenge Niederschlagsart
Fr, 19.08. 18:30 0.0 l/m2 in 1 Std. -
Fr, 19.08. 18:20 keine Meldung -
Fr, 19.08. 18:10 keine Meldung -
Fr, 19.08. 18:00 0.0 l/m2 in 1 Std. -
Fr, 19.08. 17:50 keine Meldung -
Fr, 19.08. 17:40 keine Meldung -
Fr, 19.08. 17:30 0.0 l/m2 in 1 Std. -
Fr, 19.08. 17:00 0.0 l/m2 in 1 Std. -
Fr, 19.08. 16:30 0.0 l/m2 in 1 Std. -
Fr, 19.08. 16:00 0.0 l/m2 in 1 Std. -
Fr, 19.08. 15:30 0.0 l/m2 in 1 Std. -
Fr, 19.08. 15:00 0.0 l/m2 in 1 Std. -
Ortszeit Stärke Spitze Richtung
km/h Bft. km/h Grad Sektor
Fr, 19.08. 14:00 7 2 20 290° W
Fr, 19.08. 8:00 0 0 7 - -
Fr, 19.08. 2:00 0 0 18 - -
Do, 18.08. 20:00 13 3 26 320° NW
Do, 18.08. 14:00 4 1 18 280° W
Do, 18.08. 8:00 7 2 14 190° S
Do, 18.08. 2:00 2 1 24 60° NO
Mi, 17.08. 20:00 17 3 56 260° W
Ortszeit Stärke Spitze Richtung
km/h Bft. km/h Grad Sektor
Fr, 19.08. 18:30 9 2 11 350° N
Fr, 19.08. 18:20 9 2 - 350° N
Fr, 19.08. 18:10 7 2 - 290° W
Fr, 19.08. 18:00 7 2 18 280° W
Fr, 19.08. 17:50 7 2 - 280° W
Fr, 19.08. 17:40 9 2 - 270° W
Fr, 19.08. 17:30 7 2 18 300° NW
Fr, 19.08. 17:00 11 2 30 290° W
Fr, 19.08. 16:30 19 3 30 270° W
Fr, 19.08. 16:00 14 3 29 260° W
Fr, 19.08. 15:30 11 2 29 290° W
Fr, 19.08. 15:00 14 3 25 300° NW
Ortszeit Untergrenze Bedeckung Gattung
total tief tief mittel hoch
Fr, 19.08. 14:00 1290 m 7/8 3/8 Cu - Ci
Fr, 19.08. 8:00 3600 m 7/8 1/8 - Ac Ci
Fr, 19.08. 2:00 7500 m 1/8 0/8 - - Ci
Do, 18.08. 20:00 960 m 4/8 2/8 Cu - Ci
Do, 18.08. 14:00 480 m 7/8 7/8 Cu - -
Do, 18.08. 8:00 180 m 8/8 8/8 St - -
Do, 18.08. 2:00 7500 m 2/8 0/8 - - Ci
Mi, 17.08. 20:00 1350 m 7/8 2/8 Cu As -
Ortszeit Bedeckungsgrad in Achtel und Wolkenuntergrenze
Fr, 19.08. 18:30 3(1500m) 8(2400m)
Fr, 19.08. 18:20 3(1500m) 8(2400m)
Fr, 19.08. 18:10 8
Fr, 19.08. 18:00 2(1800m) 7(2400m)
Fr, 19.08. 17:50 7(1800m) 8(2400m)
Fr, 19.08. 17:40 8
Fr, 19.08. 17:30 2(1500m) 8(2100m)
Fr, 19.08. 17:00 1(1500m) 7(2100m)
Fr, 19.08. 16:30 2(1500m) 7(2100m) 7(9000m)
Fr, 19.08. 16:00 2(1500m) 5(9000m)
Fr, 19.08. 15:30 1(2100m) 8(9000m) 8(9000m)
Fr, 19.08. 15:00 3(1410m) 4(8400m)
Ortszeit Luftdruck NN (hPa) Tendenz (hPa in 3 Std.)
Fr, 19.08. 14:00 1013 - 0,7
Fr, 19.08. 8:00 1014 + 0,4
Fr, 19.08. 2:00 1014 + 0,7
Do, 18.08. 20:00 1012 - 0,3
Do, 18.08. 14:00 1014 0,0
Do, 18.08. 8:00 1013 + 0,5
Do, 18.08. 2:00 1012 + 0,4
Mi, 17.08. 20:00 1010 + 0,7
Ortszeit Luftdruck NN (hPa) Tendenz (hPa in 3 Std.)
Fr, 19.08. 18:30 1013 + 0,1
Fr, 19.08. 18:20 1013 keine Meldung
Fr, 19.08. 18:10 1013 keine Meldung
Fr, 19.08. 18:00 1013 - 0,1
Fr, 19.08. 17:50 1013 keine Meldung
Fr, 19.08. 17:40 1013 keine Meldung
Fr, 19.08. 17:30 1013 - 0,3
Fr, 19.08. 17:00 1013 - 0,6
Fr, 19.08. 16:30 1013 - 0,9
Fr, 19.08. 16:00 1013 - 1,0
Fr, 19.08. 15:30 1013 - 0,8
Fr, 19.08. 15:00 1013 - 0,8
Ortszeit Schneehöhe (cm)
Fr, 19.08. 14:00 0
Fr, 19.08. 8:00 0
Fr, 19.08. 2:00 0
Do, 18.08. 20:00 0
Do, 18.08. 14:00 0
Do, 18.08. 8:00 0
Do, 18.08. 2:00 0
Mi, 17.08. 20:00 0
Ortszeit Schneehöhe (cm)
Fr, 19.08. 18:30 0
Fr, 19.08. 18:20 0
Fr, 19.08. 18:10 0
Fr, 19.08. 18:00 0
Fr, 19.08. 17:50 0
Fr, 19.08. 17:40 0
Fr, 19.08. 17:30 0
Fr, 19.08. 17:00 0
Fr, 19.08. 16:30 0
Fr, 19.08. 16:00 0
Fr, 19.08. 15:30 0
Fr, 19.08. 15:00 0
Link zu dieser Seite / Seite empfehlen

Das Wetter in ...